createdAt,value
2023-05-09T00:01:17.794Z,98563.95
2023-05-09T00:03:46.361Z,98568.90
2023-05-09T00:06:17.078Z,98569.20
2023-05-09T00:08:45.896Z,98568.73
2023-05-09T00:11:39.749Z,98569.34
2023-05-09T00:14:08.441Z,98568.55
2023-05-09T00:16:37.370Z,98568.27
2023-05-09T00:19:06.019Z,98568.68
2023-05-09T00:21:34.605Z,98569.31
2023-05-09T00:24:03.133Z,98568.70
2023-05-09T00:26:31.455Z,98564.32
2023-05-09T00:28:59.574Z,98567.29
2023-05-09T00:31:28.665Z,98570.34
2023-05-09T00:33:57.350Z,98572.08
2023-05-09T00:36:25.597Z,98571.05
2023-05-09T00:38:54.175Z,98571.75
2023-05-09T00:41:22.436Z,98571.65
2023-05-09T00:43:51.842Z,98567.47
2023-05-09T00:46:20.120Z,98566.66
2023-05-09T00:48:51.362Z,98563.66
2023-05-09T00:51:21.273Z,98560.55
2023-05-09T00:53:49.279Z,98561.89
2023-05-09T00:56:17.648Z,98564.50
2023-05-09T00:58:45.715Z,98566.11
2023-05-09T01:01:14.292Z,98567.13
2023-05-09T01:03:43.628Z,98565.91
2023-05-09T01:06:22.700Z,98568.43
2023-05-09T01:09:15.510Z,98571.38
2023-05-09T01:12:19.677Z,98571.95
2023-05-09T01:15:06.803Z,98572.55
2023-05-09T01:17:41.949Z,98573.08
2023-05-09T01:20:19.721Z,98573.61
2023-05-09T01:23:13.632Z,98571.29
2023-05-09T01:26:27.764Z,98570.86
2023-05-09T01:29:20.499Z,98570.81
2023-05-09T01:31:52.255Z,98570.30
2023-05-09T01:34:25.353Z,98575.75
2023-05-09T01:36:59.865Z,98572.98
2023-05-09T01:39:32.560Z,98572.69
2023-05-09T01:42:05.224Z,98575.50
2023-05-09T01:44:45.482Z,98574.20
2023-05-09T01:47:17.339Z,98574.50
2023-05-09T01:49:48.735Z,98571.29
2023-05-09T01:52:20.820Z,98568.84
2023-05-09T01:54:52.512Z,98565.23
2023-05-09T01:57:23.753Z,98561.26
2023-05-09T01:59:53.221Z,98562.23
2023-05-09T02:02:21.853Z,98562.34
2023-05-09T02:04:51.365Z,98563.79
2023-05-09T02:07:21.773Z,98557.73
2023-05-09T02:09:57.019Z,98556.63
2023-05-09T02:12:25.386Z,98558.55
2023-05-09T02:14:53.759Z,98559.75
2023-05-09T02:17:22.271Z,98561.55
2023-05-09T02:19:50.928Z,98560.94
2023-05-09T02:22:23.302Z,98559.95
2023-05-09T02:24:52.331Z,98561.39
2023-05-09T02:27:20.868Z,98560.98
2023-05-09T02:29:55.286Z,98562.48
2023-05-09T02:32:27.516Z,98558.46
2023-05-09T02:34:58.525Z,98560.00
2023-05-09T02:37:28.424Z,98558.95
2023-05-09T02:39:59.355Z,98559.80
2023-05-09T02:42:32.338Z,98562.70
2023-05-09T02:45:02.382Z,98555.89
2023-05-09T02:47:32.497Z,98553.19
2023-05-09T02:50:03.032Z,98554.23
2023-05-09T02:52:32.317Z,98553.60
2023-05-09T02:55:01.761Z,98556.52
2023-05-09T02:57:30.441Z,98552.18
2023-05-09T02:59:58.869Z,98555.34
2023-05-09T03:02:27.496Z,98556.73
2023-05-09T03:04:57.257Z,98561.50
2023-05-09T03:07:25.991Z,98563.10
2023-05-09T03:09:54.424Z,98564.67
2023-05-09T03:12:22.700Z,98568.09
2023-05-09T03:14:53.648Z,98565.29
2023-05-09T03:17:23.569Z,98567.52
2023-05-09T03:19:52.445Z,98567.45
2023-05-09T03:22:23.481Z,98570.71
2023-05-09T03:24:57.899Z,98578.05
2023-05-09T03:27:46.266Z,98579.70
2023-05-09T03:30:16.384Z,98584.36
2023-05-09T03:32:45.923Z,98582.25
2023-05-09T03:35:17.625Z,98585.84
2023-05-09T03:37:48.194Z,98586.13
2023-05-09T03:40:17.044Z,98590.84
2023-05-09T03:42:51.968Z,98589.01
2023-05-09T03:45:21.599Z,98590.59
2023-05-09T03:47:49.920Z,98592.36
2023-05-09T03:50:19.261Z,98595.27
2023-05-09T03:52:47.847Z,98593.54
2023-05-09T03:55:18.895Z,98593.64
2023-05-09T03:57:47.365Z,98596.56
2023-05-09T04:00:16.565Z,98596.52
2023-05-09T04:02:51.239Z,98599.13
2023-05-09T04:05:40.048Z,98605.63
2023-05-09T04:08:11.709Z,98608.67
2023-05-09T04:10:40.507Z,98612.84
2023-05-09T04:13:08.870Z,98611.95
2023-05-09T04:15:37.446Z,98607.77
2023-05-09T04:18:06.200Z,98603.99
2023-05-09T04:20:35.038Z,98604.80
2023-05-09T04:23:05.346Z,98603.75
2023-05-09T04:25:35.472Z,98604.41
2023-05-09T04:28:04.877Z,98602.71
2023-05-09T04:30:33.546Z,98602.92
2023-05-09T04:33:02.749Z,98602.54
2023-05-09T04:35:30.919Z,98607.73
2023-05-09T04:38:00.170Z,98610.06
2023-05-09T04:40:28.816Z,98607.51
2023-05-09T04:47:32.315Z,98603.09
2023-05-09T04:50:01.520Z,98604.48
2023-05-09T04:52:30.383Z,98604.66
2023-05-09T04:54:58.900Z,98609.55
2023-05-09T04:57:30.766Z,98614.63
2023-05-09T04:59:59.352Z,98618.77
2023-05-09T05:02:27.839Z,98623.21
2023-05-09T05:05:48.092Z,98623.75
2023-05-09T05:08:19.363Z,98624.29
2023-05-09T05:10:52.052Z,98630.73
2023-05-09T05:13:21.800Z,98629.84
2023-05-09T05:16:19.284Z,98620.27
2023-05-09T05:18:48.501Z,98623.02
2023-05-09T05:21:17.720Z,98638.61
2023-05-09T05:23:46.595Z,98639.23
2023-05-09T05:26:49.073Z,98638.75
2023-05-09T05:29:18.203Z,98644.94
2023-05-09T05:31:46.760Z,98646.59
2023-05-09T05:34:17.482Z,98647.36
2023-05-09T05:36:48.904Z,98651.08
2023-05-09T05:39:41.900Z,98655.57
2023-05-09T05:42:10.367Z,98658.14
2023-05-09T05:44:38.951Z,98655.00
2023-05-09T05:47:07.425Z,98654.29
2023-05-09T05:49:35.901Z,98653.39
2023-05-09T05:52:04.962Z,98651.10
2023-05-09T05:54:34.094Z,98651.75
2023-05-09T05:57:28.299Z,98655.18
2023-05-09T05:59:57.229Z,98650.14
2023-05-09T06:02:26.444Z,98655.52
2023-05-09T06:04:56.487Z,98649.78
2023-05-09T06:07:26.189Z,98654.99
2023-05-09T06:09:54.467Z,98653.61
2023-05-09T06:12:22.745Z,98651.36
2023-05-09T06:14:50.911Z,98648.27
2023-05-09T06:17:19.845Z,98647.03
2023-05-09T06:19:48.996Z,98647.43
2023-05-09T06:22:17.474Z,98648.77
2023-05-09T06:24:45.871Z,98650.27
2023-05-09T06:31:21.323Z,98643.59
2023-05-09T06:33:52.162Z,98641.70
2023-05-09T06:36:20.318Z,98642.09
2023-05-09T06:38:48.813Z,98643.04
2023-05-09T06:41:17.506Z,98633.99
2023-05-09T06:43:48.050Z,98634.81
2023-05-09T06:46:16.973Z,98633.95
2023-05-09T06:48:46.123Z,98637.84
2023-05-09T06:51:14.393Z,98633.91
2023-05-09T06:53:43.208Z,98629.13
2023-05-09T06:56:12.591Z,98627.39
2023-05-09T06:58:41.245Z,98620.32
2023-05-09T07:01:09.687Z,98612.58
2023-05-09T07:03:38.106Z,98618.41
2023-05-09T07:06:06.922Z,98618.45
2023-05-09T07:08:35.062Z,98614.66
2023-05-09T07:11:03.272Z,98617.93
2023-05-09T07:13:32.059Z,98613.94
2023-05-09T07:16:00.570Z,98615.09
2023-05-09T07:18:29.117Z,98615.30
2023-05-09T07:21:00.814Z,98619.27
2023-05-09T07:23:30.488Z,98621.55
2023-05-09T07:25:59.685Z,98622.53
2023-05-09T07:28:28.470Z,98614.29
2023-05-09T07:30:57.120Z,98615.59
2023-05-09T07:33:25.567Z,98616.17
2023-05-09T07:35:54.021Z,98616.10
2023-05-09T07:38:22.757Z,98613.28
2023-05-09T07:41:16.935Z,98603.11
2023-05-09T07:43:45.562Z,98611.05
2023-05-09T07:46:14.093Z,98606.40
2023-05-09T07:48:42.618Z,98610.02
2023-05-09T07:51:11.224Z,98604.86
2023-05-09T07:53:39.787Z,98600.30
2023-05-09T07:56:33.462Z,98611.41
2023-05-09T07:59:03.987Z,98610.41
2023-05-09T08:01:32.164Z,98611.83
2023-05-09T08:04:00.917Z,98613.80
2023-05-09T08:06:31.558Z,98614.96
2023-05-09T08:17:57.295Z,98622.50
2023-05-09T08:20:26.246Z,98623.44
2023-05-09T08:22:54.828Z,98623.15
2023-05-09T08:25:23.104Z,98617.94
2023-05-09T08:27:53.150Z,98616.17
2023-05-09T08:30:23.748Z,98617.04
2023-05-09T08:32:52.156Z,98617.04
2023-05-09T08:35:20.811Z,98613.02
2023-05-09T08:37:49.037Z,98613.14
2023-05-09T08:40:17.939Z,98613.52
2023-05-09T08:42:50.058Z,98605.78
2023-05-09T08:45:28.041Z,98615.05
2023-05-09T08:47:57.499Z,98613.05
2023-05-09T08:50:29.921Z,98608.13
2023-05-09T08:52:58.268Z,98610.32
2023-05-09T08:55:28.456Z,98605.33
2023-05-09T08:57:58.028Z,98610.49
2023-05-09T09:00:28.042Z,98605.46
2023-05-09T09:02:59.735Z,98602.77
2023-05-09T09:08:08.019Z,98594.77
2023-05-09T09:10:41.011Z,98588.40
2023-05-09T09:13:13.196Z,98596.40
2023-05-09T09:15:47.284Z,98595.25
2023-05-09T09:18:22.318Z,98596.27
2023-05-09T09:21:03.189Z,98600.34
2023-05-09T09:24:17.385Z,98593.82
2023-05-09T09:26:52.264Z,98598.17
2023-05-09T09:29:23.122Z,98600.05
2023-05-09T09:31:55.468Z,98598.15
2023-05-09T09:34:25.107Z,98595.27
2023-05-09T09:36:54.486Z,98599.83
2023-05-09T09:39:23.373Z,98604.56
2023-05-09T09:41:51.816Z,98602.45
2023-05-09T09:44:22.491Z,98587.90
2023-05-09T09:46:56.056Z,98596.94
2023-05-09T09:49:27.126Z,98595.99
2023-05-09T09:52:00.669Z,98596.57
2023-05-09T09:54:32.994Z,98599.26
2023-05-09T09:57:04.547Z,98599.04
2023-05-09T09:59:33.134Z,98597.66
2023-05-09T10:02:08.775Z,98598.34
2023-05-09T10:04:47.299Z,98596.50
2023-05-09T10:07:19.048Z,98595.83
2023-05-09T10:09:49.569Z,98597.67
2023-05-09T10:12:20.820Z,98605.02
2023-05-09T10:14:53.124Z,98604.95
2023-05-09T10:17:25.730Z,98611.35
2023-05-09T10:19:56.100Z,98611.27
2023-05-09T10:22:25.817Z,98605.23
2023-05-09T10:25:08.801Z,98608.34
2023-05-09T10:27:39.969Z,98602.20
2023-05-09T10:30:20.922Z,98597.96
2023-05-09T10:33:09.023Z,98594.85
2023-05-09T10:35:47.292Z,98595.39
2023-05-09T10:38:19.348Z,98598.00
2023-05-09T10:40:48.652Z,98599.14
2023-05-09T10:43:17.236Z,98593.48
2023-05-09T10:45:50.940Z,98594.13
2023-05-09T10:48:19.103Z,98597.79
2023-05-09T10:50:53.541Z,98591.73
2023-05-09T10:53:26.200Z,98597.25
2023-05-09T10:56:01.065Z,98601.76
2023-05-09T10:58:38.098Z,98602.44
2023-05-09T11:01:11.178Z,98598.23
2023-05-09T11:03:57.992Z,98601.96
2023-05-09T11:06:45.351Z,98606.73
2023-05-09T11:09:34.419Z,98601.10
2023-05-09T11:12:06.419Z,98601.23
2023-05-09T11:14:47.645Z,98607.34
2023-05-09T11:17:23.521Z,98613.05
2023-05-09T11:19:52.015Z,98609.73
2023-05-09T11:22:33.465Z,98606.23
2023-05-09T11:25:17.994Z,98607.36
2023-05-09T11:27:51.329Z,98608.67
2023-05-09T11:30:22.658Z,98608.59
2023-05-09T11:32:59.412Z,98606.78
2023-05-09T11:35:28.769Z,98603.25
2023-05-09T11:38:04.533Z,98611.76
2023-05-09T11:40:35.589Z,98611.69
2023-05-09T11:43:04.106Z,98615.27
2023-05-09T11:45:34.401Z,98617.48
2023-05-09T11:48:09.281Z,98613.67
2023-05-09T11:50:38.073Z,98616.35
2023-05-09T11:53:10.009Z,98608.98
2023-05-09T11:55:39.207Z,98612.77
2023-05-09T11:58:10.185Z,98611.63
2023-05-09T12:00:47.255Z,98612.51
2023-05-09T12:03:16.489Z,98607.29
2023-05-09T12:05:45.422Z,98604.52
2023-05-09T12:08:14.094Z,98602.92
2023-05-09T12:10:42.490Z,98602.23
2023-05-09T12:13:10.742Z,98603.89
2023-05-09T12:15:39.374Z,98609.36
2023-05-09T12:18:10.128Z,98604.17
2023-05-09T12:20:43.007Z,98598.50
2023-05-09T12:23:15.221Z,98586.10
2023-05-09T12:26:11.671Z,98595.90
2023-05-09T12:28:44.019Z,98591.02
2023-05-09T12:31:13.656Z,98577.08
2023-05-09T12:33:42.527Z,98579.20
2023-05-09T12:37:04.697Z,98577.35
2023-05-09T12:39:33.360Z,98575.84
2023-05-09T12:42:02.359Z,98577.60
2023-05-09T12:44:31.399Z,98579.64
2023-05-09T12:47:03.852Z,98581.59
2023-05-09T12:49:52.677Z,98569.67
2023-05-09T12:52:23.034Z,98584.08
2023-05-09T12:54:53.413Z,98574.63
2023-05-09T12:57:57.323Z,98574.95
2023-05-09T13:00:27.708Z,98576.58
2023-05-09T13:02:56.511Z,98571.58
2023-05-09T13:05:25.484Z,98570.88
2023-05-09T13:07:57.589Z,98567.79
2023-05-09T13:10:30.474Z,98568.80
2023-05-09T13:12:59.493Z,98569.23
2023-05-09T13:15:28.224Z,98566.04
2023-05-09T13:17:56.565Z,98564.81
2023-05-09T13:20:34.331Z,98564.53
2023-05-09T13:23:02.710Z,98560.70
2023-05-09T13:25:31.488Z,98558.24
2023-05-09T13:28:06.433Z,98552.83
2023-05-09T13:30:35.434Z,98552.23
2023-05-09T13:33:29.121Z,98550.23
2023-05-09T13:35:57.465Z,98548.63
2023-05-09T13:38:26.255Z,98545.88
2023-05-09T13:40:54.543Z,98547.53
2023-05-09T13:43:24.344Z,98552.40
2023-05-09T13:45:52.531Z,98553.09
2023-05-09T13:48:21.222Z,98553.84
2023-05-09T13:50:51.426Z,98553.38
2023-05-09T13:53:20.446Z,98556.91
2023-05-09T13:55:48.993Z,98559.41
2023-05-09T13:58:17.177Z,98558.56
2023-05-09T14:00:45.858Z,98560.34
2023-05-09T14:03:14.108Z,98564.13
2023-05-09T14:05:43.955Z,98562.98
2023-05-09T14:08:13.959Z,98565.42
2023-05-09T14:10:44.886Z,98564.55
2023-05-09T14:13:13.213Z,98566.08
2023-05-09T14:15:41.803Z,98564.31
2023-05-09T14:18:10.537Z,98560.80
2023-05-09T14:20:40.771Z,98547.55
2023-05-09T14:23:09.762Z,98541.91
2023-05-09T14:25:40.702Z,98551.59
2023-05-09T14:28:09.704Z,98554.04
2023-05-09T14:30:38.063Z,98552.13
2023-05-09T14:33:07.874Z,98551.14
2023-05-09T14:35:37.397Z,98551.95
2023-05-09T14:38:07.090Z,98544.98
2023-05-09T14:40:35.370Z,98544.05
2023-05-09T14:43:04.637Z,98541.98
2023-05-09T14:45:35.499Z,98540.23
2023-05-09T14:48:04.234Z,98542.39
2023-05-09T14:50:35.321Z,98536.66
2023-05-09T14:53:04.726Z,98537.30
2023-05-09T14:55:34.132Z,98537.85
2023-05-09T14:58:03.426Z,98538.64
2023-05-09T15:00:32.028Z,98539.20
2023-05-09T15:03:00.384Z,98541.30
2023-05-09T15:05:28.867Z,98539.95
2023-05-09T15:07:57.135Z,98547.60
2023-05-09T15:10:28.317Z,98548.64
2023-05-09T15:12:57.900Z,98550.80
2023-05-09T15:15:32.213Z,98554.79
2023-05-09T15:18:03.360Z,98554.17
2023-05-09T15:20:33.885Z,98557.72
2023-05-09T15:23:02.520Z,98555.26
2023-05-09T15:25:32.377Z,98554.98
2023-05-09T15:28:01.075Z,98553.65
2023-05-09T15:30:29.645Z,98552.52
2023-05-09T15:33:00.034Z,98554.70
2023-05-09T15:35:28.333Z,98551.73
2023-05-09T15:37:56.831Z,98551.68
2023-05-09T15:41:15.708Z,98546.63
2023-05-09T15:43:44.382Z,98542.88
2023-05-09T15:46:13.130Z,98542.95
2023-05-09T15:48:41.839Z,98539.86
2023-05-09T15:51:10.663Z,98539.81
2023-05-09T15:53:39.009Z,98540.23
2023-05-09T15:56:08.837Z,98546.08
2023-05-09T15:58:37.824Z,98547.84
2023-05-09T16:01:08.492Z,98546.96
2023-05-09T16:03:38.011Z,98551.45
2023-05-09T16:06:06.950Z,98551.51
2023-05-09T16:08:35.707Z,98551.10
2023-05-09T16:11:24.087Z,98553.03
2023-05-09T16:13:53.099Z,98552.51
2023-05-09T16:16:21.876Z,98551.96
2023-05-09T16:18:50.438Z,98550.84
2023-05-09T16:21:19.668Z,98555.77
2023-05-09T16:23:48.419Z,98552.67
2023-05-09T16:26:16.804Z,98551.34
2023-05-09T16:28:45.184Z,98551.48
2023-05-09T16:31:13.524Z,98551.64
2023-05-09T16:33:42.240Z,98551.85
2023-05-09T16:40:50.941Z,98551.33
2023-05-09T16:43:22.238Z,98550.88
2023-05-09T16:45:50.799Z,98550.08
2023-05-09T16:48:19.609Z,98548.63
2023-05-09T16:50:50.435Z,98552.23
2023-05-09T16:53:20.354Z,98554.33
2023-05-09T16:55:49.554Z,98558.80
2023-05-09T16:58:18.056Z,98558.30
2023-05-09T17:00:51.293Z,98558.08
2023-05-09T17:03:20.324Z,98556.89
2023-05-09T17:05:48.488Z,98557.80
2023-05-09T17:08:37.150Z,98560.77
2023-05-09T17:11:05.935Z,98566.23
2023-05-09T17:13:34.463Z,98572.05
2023-05-09T17:16:03.446Z,98575.08
2023-05-09T17:18:37.668Z,98572.18
2023-05-09T17:21:20.944Z,98570.38
2023-05-09T17:23:49.011Z,98572.49
2023-05-09T17:26:17.292Z,98575.17
2023-05-09T17:28:45.492Z,98570.73
2023-05-09T17:31:14.497Z,98571.09
2023-05-09T17:33:44.064Z,98568.41
2023-05-09T17:36:12.470Z,98566.81
2023-05-09T17:39:06.092Z,98566.48
2023-05-09T17:41:34.997Z,98564.00
2023-05-09T17:44:03.755Z,98566.01
2023-05-09T17:46:36.222Z,98570.38
2023-05-09T17:49:04.365Z,98575.20
2023-05-09T17:51:33.129Z,98574.33
2023-05-09T17:54:01.188Z,98577.77
2023-05-09T17:56:29.466Z,98582.66
2023-05-09T17:59:00.126Z,98588.14
2023-05-09T18:01:28.404Z,98585.17
2023-05-09T18:03:58.672Z,98587.62
2023-05-09T18:06:26.973Z,98590.02
2023-05-09T18:08:55.516Z,98594.27
2023-05-09T18:11:25.062Z,98596.89
2023-05-09T18:13:53.634Z,98600.69
2023-05-09T18:16:22.412Z,98603.91
2023-05-09T18:18:51.933Z,98606.70
2023-05-09T18:21:20.514Z,98603.71
2023-05-09T18:23:48.886Z,98606.80
2023-05-09T18:26:17.233Z,98605.31
2023-05-09T18:28:45.651Z,98602.88
2023-05-09T18:31:14.060Z,98609.02
2023-05-09T18:33:42.448Z,98612.31
2023-05-09T18:36:11.441Z,98615.81
2023-05-09T18:38:42.335Z,98614.02
2023-05-09T18:41:32.729Z,98612.58
2023-05-09T18:44:01.006Z,98613.73
2023-05-09T18:46:32.597Z,98616.70
2023-05-09T18:49:02.880Z,98619.54
2023-05-09T18:51:32.484Z,98619.36
2023-05-09T18:54:00.761Z,98620.48
2023-05-09T18:56:28.931Z,98620.48
2023-05-09T18:58:57.212Z,98623.33
2023-05-09T19:01:26.950Z,98620.45
2023-05-09T19:03:56.036Z,98620.51
2023-05-09T19:06:24.593Z,98618.69
2023-05-09T19:08:54.126Z,98621.73
2023-05-09T19:11:24.452Z,98625.19
2023-05-09T19:13:54.599Z,98623.83
2023-05-09T19:16:24.962Z,98622.25
2023-05-09T19:19:02.154Z,98624.45
2023-05-09T19:21:31.245Z,98624.88
2023-05-09T19:23:59.714Z,98624.30
2023-05-09T19:26:28.098Z,98620.83
2023-05-09T19:28:56.372Z,98622.93
2023-05-09T19:31:28.433Z,98622.80
2023-05-09T19:33:57.121Z,98622.47
2023-05-09T19:36:25.121Z,98621.46
2023-05-09T19:38:54.007Z,98619.55
2023-05-09T19:41:22.364Z,98616.73
2023-05-09T19:43:51.856Z,98607.39
2023-05-09T19:46:20.154Z,98612.42
2023-05-09T19:48:48.618Z,98611.73
2023-05-09T19:51:17.406Z,98613.50
2023-05-09T19:53:48.031Z,98615.40
2023-05-09T19:56:17.353Z,98617.44
2023-05-09T19:58:51.295Z,98614.90
2023-05-09T20:01:20.667Z,98615.42
2023-05-09T20:03:56.438Z,98615.73
2023-05-09T20:06:46.393Z,98615.65
2023-05-09T20:09:22.712Z,98614.31
2023-05-09T20:11:50.821Z,98616.56
2023-05-09T20:14:18.963Z,98614.25
2023-05-09T20:16:47.980Z,98614.77
2023-05-09T20:19:19.959Z,98614.27
2023-05-09T20:21:52.641Z,98614.17
2023-05-09T20:24:20.891Z,98613.85
2023-05-09T20:26:49.269Z,98616.35
2023-05-09T20:29:17.345Z,98610.89
2023-05-09T20:31:47.861Z,98610.18
2023-05-09T20:34:19.241Z,98614.54
2023-05-09T20:36:54.760Z,98614.06
2023-05-09T20:39:26.106Z,98608.95
2023-05-09T20:41:56.032Z,98607.65
2023-05-09T20:44:24.300Z,98605.41
2023-05-09T20:46:55.037Z,98604.96
2023-05-09T20:50:14.438Z,98603.36
2023-05-09T20:52:43.715Z,98603.68
2023-05-09T20:55:12.197Z,98603.14
2023-05-09T20:57:40.784Z,98605.13
2023-05-09T21:00:11.614Z,98602.00
2023-05-09T21:02:39.993Z,98600.52
2023-05-09T21:05:09.922Z,98598.45
2023-05-09T21:07:38.069Z,98599.16
2023-05-09T21:10:10.541Z,98598.95
2023-05-09T21:12:38.617Z,98596.83
2023-05-09T21:15:07.817Z,98596.20
2023-05-09T21:17:36.027Z,98591.48
2023-05-09T21:20:05.233Z,98590.73
2023-05-09T21:22:33.452Z,98591.27
2023-05-09T21:25:02.787Z,98591.91
2023-05-09T21:27:31.914Z,98592.27
2023-05-09T21:30:00.217Z,98591.60
2023-05-09T21:32:32.810Z,98593.58
2023-05-09T21:35:04.688Z,98590.20
2023-05-09T21:37:33.759Z,98589.42
2023-05-09T21:40:05.700Z,98587.52
2023-05-09T21:42:36.555Z,98579.94
2023-05-09T21:45:05.751Z,98577.69
2023-05-09T21:47:34.932Z,98575.90
2023-05-09T21:50:04.337Z,98576.09
2023-05-09T21:52:32.891Z,98573.75
2023-05-09T21:55:02.021Z,98572.01
2023-05-09T21:57:30.295Z,98571.81
2023-05-09T22:00:02.383Z,98570.88
2023-05-09T22:02:30.693Z,98569.63
2023-05-09T22:04:59.039Z,98569.11
2023-05-09T22:07:27.818Z,98568.06
2023-05-09T22:09:56.416Z,98571.61
2023-05-09T22:12:25.174Z,98570.58
2023-05-09T22:14:56.659Z,98569.80
2023-05-09T22:17:27.682Z,98565.88
2023-05-09T22:19:55.688Z,98562.00
2023-05-09T22:22:24.042Z,98566.76
2023-05-09T22:24:52.605Z,98559.28
2023-05-09T22:27:20.931Z,98556.39
2023-05-09T22:29:49.350Z,98555.49
2023-05-09T22:32:17.934Z,98550.02
2023-05-09T22:34:49.588Z,98549.34
2023-05-09T22:37:17.865Z,98548.98
2023-05-09T22:39:48.351Z,98549.33
2023-05-09T22:42:17.038Z,98547.96
2023-05-09T22:44:47.912Z,98545.59
2023-05-09T22:47:16.463Z,98546.28
2023-05-09T22:49:45.943Z,98547.13
2023-05-09T22:52:14.648Z,98542.35
2023-05-09T22:54:43.272Z,98541.96
2023-05-09T22:57:12.244Z,98538.69
2023-05-09T22:59:40.460Z,98536.84
2023-05-09T23:02:09.378Z,98533.98
2023-05-09T23:05:02.511Z,98529.09
2023-05-09T23:07:31.397Z,98524.67
2023-05-09T23:09:59.764Z,98526.57
2023-05-09T23:12:28.150Z,98526.30
2023-05-09T23:14:56.307Z,98522.63
2023-05-09T23:17:24.661Z,98517.39
2023-05-09T23:19:53.384Z,98518.27
2023-05-09T23:22:22.865Z,98514.55
2023-05-09T23:24:51.310Z,98509.55
2023-05-09T23:27:19.423Z,98507.19
2023-05-09T23:29:47.794Z,98507.94
2023-05-09T23:32:16.072Z,98506.21
2023-05-09T23:34:44.253Z,98504.59
2023-05-09T23:37:12.741Z,98502.36
2023-05-09T23:39:41.082Z,98498.89
2023-05-09T23:42:09.082Z,98497.38
2023-05-09T23:44:37.191Z,98494.61
2023-05-09T23:47:05.629Z,98490.62
2023-05-09T23:49:34.003Z,98490.89
2023-05-09T23:52:02.467Z,98482.81
2023-05-09T23:54:30.962Z,98486.48
2023-05-09T23:57:00.134Z,98484.81
2023-05-09T23:59:28.648Z,98481.30
